Time;durP1;ratioP1;P1;durP2;ratioP2;P2;SDS_P1;SDS_P2;PMS_P1;PMS_P2;Temp;Humidity;BMP_temperature;BMP_pressure;BME280_temperature;BME280_humidity;BME280_pressure;Samples;Min_cycle;Max_cycle;Signal;HPM_P1;HPM_P2
2022/06/18 00:02:18;;;;;;;11.73;5.97;;;;;;;18.00;64.99;100652.16;123221;1099;104248;-77
2022/06/18 00:04:50;;;;;;;11.90;5.63;;;;;;;17.98;65.04;100659.23;123174;1099;104241;-76
2022/06/18 00:07:23;;;;;;;12.45;6.05;;;;;;;17.92;64.77;100647.70;123216;1099;104268;-76
2022/06/18 00:10:04;;;;;;;11.65;6.12;;;;;;;17.91;65.58;100653.87;123402;1099;104219;-76
2022/06/18 00:15:28;;;;;;;9.77;6.00;;;;;;;17.82;65.23;100651.11;123174;1099;104252;-77
2022/06/18 00:18:00;;;;;;;13.97;5.97;;;;;;;17.81;66.03;100653.75;123186;1099;104251;-76
2022/06/18 00:20:36;;;;;;;9.87;5.33;;;;;;;17.78;65.55;100662.59;123203;1099;104383;-76
2022/06/18 00:23:14;;;;;;;9.43;5.93;;;;;;;17.77;65.60;100660.80;123239;1098;104339;-76
2022/06/18 00:25:48;;;;;;;9.30;5.37;;;;;;;17.74;65.96;100669.62;123259;1099;104447;-77
2022/06/18 00:28:22;;;;;;;10.05;5.20;;;;;;;17.73;65.74;100653.68;123239;1099;104299;-77
2022/06/18 00:30:55;;;;;;;10.77;5.23;;;;;;;17.73;65.74;100658.99;123255;1099;104251;-77
2022/06/18 00:33:28;;;;;;;10.00;5.25;;;;;;;17.73;65.26;100664.30;123245;1099;104357;-77
2022/06/18 00:36:03;;;;;;;8.43;5.20;;;;;;;17.72;65.66;100665.20;123212;1099;104313;-77
2022/06/18 00:38:39;;;;;;;11.50;5.33;;;;;;;17.72;65.39;100666.08;123163;1099;104309;-77
2022/06/18 00:41:16;;;;;;;10.50;5.30;;;;;;;17.72;65.65;100649.27;123193;1099;104214;-77
2022/06/18 00:43:51;;;;;;;10.50;5.70;;;;;;;17.73;65.56;100651.03;123271;1099;104367;-77
2022/06/18 00:46:29;;;;;;;11.50;5.17;;;;;;;17.74;66.20;100658.13;123282;1099;104363;-76
2022/06/18 00:49:07;;;;;;;10.60;5.40;;;;;;;17.68;65.64;100655.41;123206;1098;104347;-76
2022/06/18 00:51:43;;;;;;;9.93;5.57;;;;;;;17.67;65.67;100656.28;123203;1099;104432;-77
2022/06/18 00:54:21;;;;;;;9.03;4.90;;;;;;;17.64;66.16;100656.25;123250;1099;104265;-76
2022/06/18 00:56:58;;;;;;;6.50;4.77;;;;;;;17.58;66.05;100649.14;123449;1099;104637;-77
2022/06/18 00:59:34;;;;;;;8.43;5.10;;;;;;;17.55;65.69;100644.69;123496;1098;104366;-77
2022/06/18 01:02:15;;;;;;;8.90;4.93;;;;;;;17.53;66.23;100654.41;123515;1099;104162;-76
2022/06/18 01:04:46;;;;;;;8.60;4.70;;;;;;;17.50;65.76;100645.50;123495;1099;104473;-75
2022/06/18 01:07:29;;;;;;;7.80;4.50;;;;;;;17.47;65.89;100649.04;123487;1099;104336;-76
2022/06/18 01:10:02;;;;;;;9.67;4.50;;;;;;;17.43;66.26;100649.88;123214;1099;110479;-77
2022/06/18 01:12:34;;;;;;;8.40;5.10;;;;;;;17.40;66.07;100655.14;123484;1099;104341;-77
2022/06/18 01:15:11;;;;;;;7.50;4.13;;;;;;;17.33;65.58;100661.28;123523;1098;104697;-77
2022/06/18 01:17:49;;;;;;;8.33;5.03;;;;;;;17.29;66.33;100656.80;123423;1099;104444;-78
2022/06/18 01:20:22;;;;;;;11.53;4.60;;;;;;;17.25;66.11;100658.55;123476;1098;104300;-76
2022/06/18 01:22:59;;;;;;;8.93;5.30;;;;;;;17.21;66.07;100662.91;123478;1098;104315;-77
2022/06/18 01:25:32;;;;;;;8.40;4.70;;;;;;;17.20;66.48;100665.53;123487;1099;104336;-77
2022/06/18 01:28:04;;;;;;;9.30;5.07;;;;;;;17.18;66.49;100667.30;123440;1099;104297;-77
2022/06/18 01:30:37;;;;;;;;;;;;;;;17.17;66.20;100670.80;123479;1098;108232;-76
2022/06/18 01:33:12;;;;;;;8.38;5.20;;;;;;;17.12;66.24;100668.09;123217;1099;104290;-77
2022/06/18 01:35:50;;;;;;;9.33;4.77;;;;;;;17.14;65.97;100668.12;123470;1099;104300;-77
2022/06/18 01:38:27;;;;;;;9.70;4.93;;;;;;;17.12;66.02;100672.52;123550;1098;104249;-77
2022/06/18 01:43:53;;;;;;;11.87;5.43;;;;;;;17.06;65.96;100679.55;123516;1099;104408;-76
2022/06/18 01:46:26;;;;;;;9.67;5.40;;;;;;;16.98;66.25;100680.30;123285;1097;104370;-77
2022/06/18 01:49:00;;;;;;;9.68;5.25;;;;;;;16.91;66.54;100684.66;123556;1098;104214;-76
2022/06/18 01:51:37;;;;;;;9.57;5.40;;;;;;;16.84;66.77;100681.01;123519;1099;104437;-77
2022/06/18 01:54:13;;;;;;;11.90;5.00;;;;;;;16.79;66.52;100687.98;123482;1099;104357;-76
2022/06/18 01:56:49;;;;;;;9.70;4.87;;;;;;;16.76;66.81;100695.89;123547;1098;104402;-76
2022/06/18 01:59:26;;;;;;;9.45;5.00;;;;;;;16.70;66.71;100691.42;123582;1099;104300;-77
2022/06/18 02:01:59;;;;;;;9.33;4.60;;;;;;;16.65;66.46;100693.09;123534;1098;104232;-77
2022/06/18 02:04:34;;;;;;;10.37;5.10;;;;;;;16.62;66.92;100697.47;123672;1099;104383;-77
2022/06/18 02:07:07;;;;;;;7.75;4.95;;;;;;;16.58;66.83;100699.20;123787;1099;104422;-76
2022/06/18 02:09:45;;;;;;;6.43;4.50;;;;;;;16.56;66.35;100702.68;123686;1099;104438;-76
2022/06/18 02:12:19;;;;;;;9.27;4.93;;;;;;;16.54;66.86;100710.61;123650;1099;104243;-76
2022/06/18 02:14:53;;;;;;;8.87;4.90;;;;;;;16.50;67.45;100709.68;123736;1099;104640;-76
2022/06/18 02:17:27;;;;;;;8.27;4.70;;;;;;;16.43;66.29;100710.45;123675;1099;104252;-77
2022/06/18 02:20:03;;;;;;;6.90;4.77;;;;;;;16.38;66.62;100716.52;123597;1099;104405;-77
2022/06/18 02:22:43;;;;;;;8.17;4.53;;;;;;;16.34;67.29;100721.77;123448;1099;104401;-76
2022/06/18 02:25:16;;;;;;;9.20;4.80;;;;;;;16.35;66.78;100718.27;123527;1099;104316;-78
2022/06/18 02:27:49;;;;;;;10.03;4.93;;;;;;;16.35;67.28;100712.97;123511;1099;104348;-76
2022/06/18 02:30:24;;;;;;;10.73;4.70;;;;;;;16.34;67.27;100715.59;123548;1099;104238;-76
2022/06/18 02:33:02;;;;;;;9.80;4.70;;;;;;;16.32;67.02;100712.92;123522;1099;104235;-77
2022/06/18 02:35:34;;;;;;;8.57;4.93;;;;;;;16.30;66.79;100721.73;123485;1098;104396;-77
2022/06/18 02:38:15;;;;;;;7.57;4.63;;;;;;;16.25;67.08;100719.02;123527;1099;104313;-77
2022/06/18 02:40:47;;;;;;;9.00;5.17;;;;;;;16.21;67.52;100717.17;123642;1099;104232;-76
2022/06/18 02:43:20;;;;;;;7.73;4.63;;;;;;;16.14;68.02;100713.55;123627;1099;104238;-77
2022/06/18 02:45:56;;;;;;;7.13;4.50;;;;;;;16.15;67.47;100717.07;123684;1099;104799;-78
2022/06/18 02:48:30;;;;;;;8.30;4.77;;;;;;;16.12;67.03;100709.95;123521;1099;104652;-78
2022/06/18 02:51:03;;;;;;;6.45;4.20;;;;;;;16.08;66.76;100705.50;123556;1099;104317;-77
2022/06/18 02:53:35;;;;;;;9.03;5.22;;;;;;;16.04;67.54;100711.59;123224;1098;104361;-77
2022/06/18 02:56:10;;;;;;;9.23;5.30;;;;;;;16.04;67.71;100708.07;123180;1099;104289;-77
2022/06/18 02:58:42;;;;;;;;;;;;;;;16.01;67.18;100711.55;123244;1099;104459;-77
2022/06/18 03:01:17;;;;;;;13.57;5.13;;;;;;;15.99;67.57;100710.64;123209;1102;104409;-77
2022/06/18 03:03:51;;;;;;;15.03;5.80;;;;;;;15.97;66.92;100707.97;123268;1099;104526;-76
2022/06/18 03:06:23;;;;;;;;;;;;;;;15.96;66.79;100718.52;123217;1099;104440;-76
2022/06/18 03:08:55;;;;;;;8.67;4.63;;;;;;;15.96;66.95;100707.94;123323;1099;104242;-76
2022/06/18 03:14:18;;;;;;;13.07;5.23;;;;;;;16.01;67.04;100715.95;123199;1099;104427;-77
2022/06/18 03:16:50;;;;;;;7.50;5.13;;;;;;;16.05;67.51;100713.39;123255;1099;104620;-76
2022/06/18 03:19:31;;;;;;;6.83;4.70;;;;;;;16.06;67.01;100723.09;123202;1102;104434;-77
2022/06/18 03:22:08;;;;;;;11.57;4.97;;;;;;;16.07;67.14;100716.94;123168;1099;104372;-76
2022/06/18 03:24:41;;;;;;;9.23;5.20;;;;;;;16.07;67.05;100716.06;123272;1102;104582;-77
2022/06/18 03:27:13;;;;;;;8.70;5.57;;;;;;;16.10;66.77;100718.76;123523;1099;104419;-77
2022/06/18 03:29:49;;;;;;;9.00;4.90;;;;;;;16.12;67.47;100722.31;123491;1099;104380;-76
2022/06/18 03:32:21;;;;;;;8.65;5.20;;;;;;;16.15;67.77;100723.24;123471;1099;104868;-76
2022/06/18 03:34:52;;;;;;;9.40;5.23;;;;;;;16.22;67.55;100725.99;123491;1099;104424;-77
2022/06/18 03:37:24;;;;;;;9.53;5.13;;;;;;;16.26;66.99;100731.36;123525;1099;104322;-77
2022/06/18 03:39:57;;;;;;;8.17;5.17;;;;;;;16.31;67.74;100734.09;123471;1098;104211;-77
2022/06/18 03:42:28;;;;;;;9.63;4.83;;;;;;;16.34;66.84;100736.78;123490;1099;104496;-78
2022/06/18 03:45:00;;;;;;;12.77;4.80;;;;;;;16.41;67.49;100736.03;123566;1099;104325;-77
2022/06/18 03:47:32;;;;;;;9.97;5.47;;;;;;;16.45;67.34;100731.66;123547;1099;104345;-78
2022/06/18 03:50:04;;;;;;;9.60;5.43;;;;;;;16.45;66.99;100737.83;123627;1099;104317;-77
2022/06/18 03:52:36;;;;;;;11.83;5.80;;;;;;;16.52;67.44;100745.02;123458;1099;104428;-77
2022/06/18 03:55:10;;;;;;;10.77;5.10;;;;;;;16.58;67.10;100738.02;123563;1099;104437;-77
2022/06/18 03:57:43;;;;;;;11.05;5.30;;;;;;;16.58;66.98;100745.97;123560;1098;104348;-76
2022/06/18 04:00:21;;;;;;;9.37;5.17;;;;;;;16.55;67.10;100749.48;123174;1102;104713;-77
2022/06/18 04:02:56;;;;;;;9.60;5.40;;;;;;;16.56;67.48;100753.02;123143;1099;104329;-76
2022/06/18 04:05:28;;;;;;;9.57;5.53;;;;;;;16.58;67.02;100748.62;123215;1100;104622;-76
2022/06/18 04:07:59;;;;;;;8.20;4.97;;;;;;;16.59;67.13;100745.99;123288;1099;104457;-78
2022/06/18 04:10:58;;;;;;;6.93;4.57;;;;;;;16.63;67.13;100753.13;123357;1099;104402;-76
2022/06/18 04:13:30;;;;;;;8.27;4.80;;;;;;;16.68;67.72;100750.55;123621;1099;104709;-76
2022/06/18 04:16:11;;;;;;;7.93;4.90;;;;;;;16.70;67.47;100751.45;123473;1099;104348;-76
2022/06/18 04:18:44;;;;;;;11.63;5.00;;;;;;;16.73;66.74;100753.27;123413;1099;104238;-76
2022/06/18 04:21:18;;;;;;;8.80;5.07;;;;;;;16.77;67.34;100755.98;123417;1100;104230;-76
2022/06/18 04:23:50;;;;;;;9.53;4.70;;;;;;;16.81;67.05;100757.82;123531;1099;110694;-77
2022/06/18 04:26:21;;;;;;;9.70;4.73;;;;;;;16.85;67.12;100753.44;123314;1099;104437;-77
2022/06/18 04:28:53;;;;;;;10.80;5.30;;;;;;;16.91;67.36;100745.61;123206;1099;104322;-76
2022/06/18 04:31:27;;;;;;;9.65;4.55;;;;;;;17.00;67.25;100747.48;123218;1102;104427;-78
2022/06/18 04:33:59;;;;;;;10.43;4.87;;;;;;;17.08;66.79;100753.80;123531;1099;104338;-76
2022/06/18 04:36:41;;;;;;;8.40;4.70;;;;;;;17.11;66.76;100752.92;123346;1099;104239;-77
2022/06/18 04:39:38;;;;;;;8.40;4.90;;;;;;;17.15;66.71;100762.70;123418;1099;104437;-76
2022/06/18 04:42:28;;;;;;;9.63;5.00;;;;;;;17.19;66.55;100765.42;123545;1099;104235;-77
2022/06/18 04:45:00;;;;;;;8.70;4.50;;;;;;;17.23;66.71;100761.03;123510;1099;104664;-77
2022/06/18 04:47:47;;;;;;;9.60;4.85;;;;;;;17.33;66.43;100768.25;123759;1099;104261;-76
2022/06/18 04:50:21;;;;;;;9.23;4.90;;;;;;;17.42;66.15;100767.45;123637;1098;104312;-76
2022/06/18 04:52:53;;;;;;;8.70;4.60;;;;;;;17.48;66.25;100770.17;123667;1099;104246;-76
2022/06/18 04:55:26;;;;;;;9.80;4.90;;;;;;;17.55;66.00;100761.42;123677;1099;104347;-76
2022/06/18 04:57:58;;;;;;;8.97;4.70;;;;;;;17.63;65.92;100772.13;123682;1099;104395;-76
2022/06/18 05:00:30;;;;;;;9.73;4.80;;;;;;;17.70;65.62;100770.42;123290;1099;104275;-77
2022/06/18 05:03:22;;;;;;;9.67;5.10;;;;;;;17.78;65.81;100774.95;123314;1100;104342;-77
2022/06/18 05:06:09;;;;;;;7.87;4.90;;;;;;;17.85;65.74;100770.58;123266;1099;104721;-77
2022/06/18 05:09:03;;;;;;;9.33;4.90;;;;;;;17.91;65.61;100773.33;123196;1100;104416;-76
2022/06/18 05:12:08;;;;;;;8.13;4.50;;;;;;;18.02;65.67;100785.84;122955;1099;104467;-77
2022/06/18 05:14:51;;;;;;;8.30;5.03;;;;;;;18.08;64.74;100780.59;123157;1099;104354;-76
2022/06/18 05:17:25;;;;;;;;;;;;;;;18.12;64.87;100788.59;123229;1099;104354;-77
2022/06/18 05:19:56;;;;;;;9.73;4.47;;;;;;;18.20;64.61;100793.06;123235;1099;104345;-76
2022/06/18 05:22:29;;;;;;;6.15;4.00;;;;;;;18.25;64.49;100780.74;123206;1102;104379;-77
2022/06/18 05:25:06;;;;;;;5.83;4.07;;;;;;;18.29;63.96;100782.52;123182;1097;107906;-78
2022/06/18 05:27:39;;;;;;;7.60;3.90;;;;;;;18.34;63.71;100783.48;123260;1099;104305;-77
2022/06/18 05:30:31;;;;;;;11.87;4.10;;;;;;;18.40;63.75;100790.59;123136;1099;104422;-76
2022/06/18 05:33:03;;;;;;;;;;;;;;;18.47;63.25;100785.34;123419;1099;104238;-76
2022/06/18 05:35:39;;;;;;;6.85;3.50;;;;;;;18.50;61.38;100787.14;123512;1099;104412;-77
2022/06/18 05:38:16;;;;;;;5.13;3.67;;;;;;;18.55;61.81;100792.49;123406;1099;105101;-77
2022/06/18 05:40:47;;;;;;;6.33;3.77;;;;;;;18.60;61.80;100788.09;123449;1099;104313;-77
2022/06/18 05:43:19;;;;;;;8.27;3.70;;;;;;;18.66;62.08;100788.13;123487;1098;104822;-77
2022/06/18 05:45:53;;;;;;;7.95;4.10;;;;;;;18.74;61.53;100788.19;123489;1099;104351;-77
2022/06/18 05:48:25;;;;;;;9.33;4.03;;;;;;;18.84;61.79;100792.70;123572;1098;104363;-77
2022/06/18 05:50:56;;;;;;;5.75;3.90;;;;;;;18.93;60.84;100799.86;123418;1099;104414;-75
2022/06/18 05:53:28;;;;;;;6.03;3.53;;;;;;;18.98;60.31;100801.68;123221;1099;104323;-75
2022/06/18 05:56:19;;;;;;;9.10;3.83;;;;;;;19.02;60.97;100795.47;123550;1100;110496;-75
2022/06/18 05:59:21;;;;;;;7.50;3.90;;;;;;;19.03;59.59;100796.39;123616;1098;104363;-75
2022/06/18 06:02:02;;;;;;;5.33;3.43;;;;;;;19.07;59.50;100789.30;123623;1099;104338;-74
2022/06/18 06:04:42;;;;;;;7.50;3.70;;;;;;;19.10;59.75;100782.22;123663;1099;104299;-75
2022/06/18 06:07:18;;;;;;;6.83;3.90;;;;;;;19.19;59.51;100786.71;123628;1099;104754;-76
2022/06/18 06:12:55;;;;;;;4.60;3.70;;;;;;;19.36;58.86;100787.66;123243;1102;104453;-75
2022/06/18 06:15:26;;;;;;;5.80;3.50;;;;;;;19.40;59.05;100794.80;123268;1102;104428;-74
2022/06/18 06:17:58;;;;;;;5.30;3.60;;;;;;;19.45;58.51;100796.59;123394;1099;107153;-74
2022/06/18 06:20:33;;;;;;;4.17;3.20;;;;;;;19.57;58.70;100784.21;123668;1098;104390;-74
2022/06/18 06:23:05;;;;;;;4.00;3.17;;;;;;;19.78;58.34;100787.84;123676;1098;104277;-73
2022/06/18 06:25:37;;;;;;;5.63;3.30;;;;;;;19.97;56.78;100793.21;123602;1099;104248;-75
2022/06/18 06:28:12;;;;;;;3.53;3.17;;;;;;;20.17;57.09;100793.24;123723;1099;104297;-75
2022/06/18 06:30:44;;;;;;;10.35;3.75;;;;;;;20.33;56.49;100795.01;123684;1098;104159;-75
2022/06/18 06:33:16;;;;;;;4.67;3.47;;;;;;;20.41;55.83;100782.59;123605;1099;104252;-75
2022/06/18 06:35:48;;;;;;;5.17;3.80;;;;;;;20.56;56.53;100780.80;123692;1099;104650;-74
2022/06/18 06:38:19;;;;;;;5.60;3.50;;;;;;;20.71;55.83;100788.82;123647;1099;104290;-74
2022/06/18 06:40:51;;;;;;;4.80;3.40;;;;;;;20.86;56.04;100781.67;123628;1099;104312;-74
2022/06/18 06:43:22;;;;;;;6.03;3.40;;;;;;;20.99;56.35;100778.97;123668;1099;104399;-74
2022/06/18 06:45:54;;;;;;;7.13;3.40;;;;;;;21.14;55.13;100778.02;123759;1099;104376;-75
2022/06/18 06:48:25;;;;;;;5.97;3.60;;;;;;;21.26;53.98;100774.43;123621;1099;110178;-75
2022/06/18 06:50:56;;;;;;;4.80;3.40;;;;;;;21.31;54.71;100771.75;123624;1099;104290;-74
2022/06/18 06:53:28;;;;;;;5.30;3.65;;;;;;;21.40;54.80;100758.36;123701;1099;104534;-76
2022/06/18 06:58:48;;;;;;;8.50;3.70;;;;;;;21.50;54.15;100753.89;123786;1099;104329;-76
2022/06/18 07:01:39;;;;;;;6.40;3.70;;;;;;;21.53;54.08;100765.46;123659;1099;104399;-75
2022/06/18 07:04:13;;;;;;;9.63;4.27;;;;;;;21.62;54.79;100768.97;123889;1099;104163;-76
2022/06/18 07:06:45;;;;;;;7.50;3.80;;;;;;;21.67;54.12;100778.70;123831;1099;104262;-75
2022/06/18 07:09:16;;;;;;;7.87;3.50;;;;;;;21.77;53.47;100771.55;123651;1098;108152;-77
2022/06/18 07:11:48;;;;;;;7.87;3.70;;;;;;;21.94;53.41;100773.20;123729;1099;104494;-76
2022/06/18 07:14:19;;;;;;;5.40;3.50;;;;;;;22.00;52.88;100770.49;123874;1099;104239;-78
2022/06/18 07:16:53;;;;;;;5.87;3.60;;;;;;;22.02;52.81;100769.59;123779;1099;104350;-77
2022/06/18 07:19:23;;;;;;;;;;;;;;;22.11;52.81;100768.66;123786;1098;118915;-76
2022/06/18 07:21:55;;;;;;;6.20;3.90;;;;;;;22.32;52.78;100769.41;123686;1099;104381;-76
2022/06/18 07:24:27;;;;;;;5.15;3.40;;;;;;;22.56;52.18;100771.86;123646;1099;104277;-76
2022/06/18 07:26:58;;;;;;;7.17;3.73;;;;;;;22.69;51.81;100772.63;123668;1099;104363;-76
2022/06/18 07:29:30;;;;;;;6.87;3.60;;;;;;;22.71;51.70;100776.16;123774;1099;104319;-75
2022/06/18 07:32:09;;;;;;;6.40;4.07;;;;;;;22.64;51.77;100779.81;123778;1098;104213;-75
2022/06/18 07:34:41;;;;;;;6.73;4.10;;;;;;;22.58;51.00;100780.75;123797;1099;104197;-75
2022/06/18 07:37:13;;;;;;;5.80;3.70;;;;;;;22.69;51.07;100777.97;123639;1099;104268;-74
2022/06/18 07:39:44;;;;;;;5.60;3.80;;;;;;;22.77;51.58;100773.42;123712;1099;104265;-75
2022/06/18 07:42:18;;;;;;;6.53;3.63;;;;;;;22.78;50.81;100767.18;123656;1099;104233;-75
2022/06/18 07:44:50;;;;;;;8.93;4.20;;;;;;;22.84;51.29;100770.68;123834;1099;104316;-76
2022/06/18 07:47:22;;;;;;;6.07;3.53;;;;;;;22.85;50.39;100773.34;123690;1099;104369;-75
2022/06/18 07:49:53;;;;;;;4.50;3.63;;;;;;;22.75;50.05;100779.67;123806;1099;104219;-75
2022/06/18 07:52:24;;;;;;;6.50;3.93;;;;;;;22.60;50.17;100778.06;123615;1099;104274;-76
2022/06/18 07:54:56;;;;;;;6.23;3.57;;;;;;;22.53;51.07;100777.23;123677;1099;104273;-74
2022/06/18 07:57:27;;;;;;;5.77;4.17;;;;;;;22.58;50.82;100780.75;123734;1099;104322;-76
2022/06/18 07:59:59;;;;;;;9.70;4.93;;;;;;;22.85;50.75;100773.34;123622;1099;104395;-75
2022/06/18 08:02:30;;;;;;;8.80;4.05;;;;;;;23.13;50.03;100775.75;123606;1099;104165;-75
2022/06/18 08:05:01;;;;;;;7.30;3.80;;;;;;;23.32;50.10;100773.72;123600;1099;104262;-75
2022/06/18 08:07:33;;;;;;;10.53;4.27;;;;;;;23.49;49.28;100778.86;123786;1099;104245;-75
2022/06/18 08:10:05;;;;;;;7.30;3.80;;;;;;;23.52;48.90;100786.86;123610;1099;104310;-74
2022/06/18 08:12:37;;;;;;;5.33;3.60;;;;;;;23.45;48.33;100783.38;123561;1099;104360;-75
2022/06/18 08:15:11;;;;;;;10.50;3.73;;;;;;;23.41;48.73;100783.45;123704;1099;104637;-75
2022/06/18 08:17:42;;;;;;;4.42;3.40;;;;;;;23.55;48.04;100777.91;123696;1099;104261;-75
2022/06/18 08:20:14;;;;;;;6.33;3.37;;;;;;;23.55;47.89;100773.42;123601;1099;104191;-74
2022/06/18 08:22:49;;;;;;;7.50;3.40;;;;;;;23.50;47.58;100775.30;123615;1099;104310;-75
2022/06/18 08:25:21;;;;;;;8.70;4.03;;;;;;;23.42;46.55;100787.88;123533;1098;104713;-76
2022/06/18 08:27:55;;;;;;;4.47;3.10;;;;;;;23.42;46.79;100779.84;123669;1099;104316;-75
2022/06/18 08:30:26;;;;;;;7.67;3.40;;;;;;;23.54;47.15;100774.32;123534;1099;104291;-74
2022/06/18 08:32:58;;;;;;;6.05;3.35;;;;;;;23.60;46.68;100776.92;123602;1099;104290;-75
2022/06/18 08:35:30;;;;;;;4.70;3.23;;;;;;;23.56;46.26;100772.53;123702;1098;104259;-75
2022/06/18 08:38:01;;;;;;;5.17;3.20;;;;;;;23.65;46.51;100772.41;123642;1098;104358;-75
2022/06/18 08:40:52;;;;;;;4.50;3.20;;;;;;;23.67;46.40;100778.62;123751;1098;104233;-76
2022/06/18 08:43:50;;;;;;;7.20;3.50;;;;;;;23.63;46.11;100784.91;123683;1099;104264;-74
2022/06/18 08:46:34;;;;;;;5.13;3.20;;;;;;;23.65;45.18;100775.08;123617;1098;104204;-73
2022/06/18 08:49:26;;;;;;;4.33;3.35;;;;;;;23.86;44.99;100768.55;123618;1099;104239;-75
2022/06/18 08:52:10;;;;;;;4.77;3.40;;;;;;;24.26;45.10;100761.65;123703;1099;104264;-75
2022/06/18 08:54:50;;;;;;;5.95;3.30;;;;;;;24.44;44.21;100778.36;123938;1099;104246;-77
2022/06/18 08:57:31;;;;;;;5.03;3.47;;;;;;;24.36;43.59;100784.73;124104;1099;104261;-75
2022/06/18 09:00:11;;;;;;;7.43;3.33;;;;;;;24.32;43.99;100772.27;123882;1099;104334;-78
2022/06/18 09:02:50;;;;;;;5.50;3.25;;;;;;;24.53;43.92;100768.35;124264;1099;104236;-76
2022/06/18 09:05:32;;;;;;;6.70;3.73;;;;;;;24.81;44.27;100762.52;123994;1099;104399;-75
2022/06/18 09:08:31;;;;;;;8.27;3.47;;;;;;;24.96;43.55;100757.75;123964;1099;104309;-76
2022/06/18 09:11:23;;;;;;;5.90;3.10;;;;;;;24.94;43.41;100760.47;123721;1099;104252;-76
2022/06/18 09:13:58;;;;;;;5.85;3.35;;;;;;;25.05;43.47;100752.20;123659;1099;104306;-75
2022/06/18 09:16:36;;;;;;;4.93;3.20;;;;;;;24.98;42.77;100754.14;123832;1099;104287;-75
2022/06/18 09:19:14;;;;;;;6.23;3.20;;;;;;;24.78;43.33;100757.20;123639;1099;104565;-76
2022/06/18 09:21:53;;;;;;;4.57;3.37;;;;;;;24.65;43.01;100766.38;123829;1099;104309;-76
2022/06/18 09:24:28;;;;;;;9.40;3.73;;;;;;;24.41;43.30;100768.56;123779;1099;104345;-76
2022/06/18 09:27:06;;;;;;;7.63;4.13;;;;;;;24.14;42.92;100764.56;123873;1099;104278;-75
2022/06/18 09:29:41;;;;;;;5.30;3.60;;;;;;;23.96;42.93;100763.05;123809;1099;104324;-76
2022/06/18 09:32:17;;;;;;;7.27;4.17;;;;;;;23.92;42.73;100759.54;123696;1098;104261;-76
2022/06/18 09:34:52;;;;;;;7.00;3.95;;;;;;;24.15;42.84;100764.54;123719;1099;104216;-76
2022/06/18 09:37:29;;;;;;;4.63;2.90;;;;;;;24.42;42.46;100759.62;123774;1098;104283;-75
2022/06/18 09:40:04;;;;;;;3.80;3.03;;;;;;;24.50;41.78;100762.16;123593;1099;104261;-76
2022/06/18 09:42:41;;;;;;;3.53;2.87;;;;;;;24.50;41.23;100759.48;123631;1099;104313;-77
2022/06/18 09:45:19;;;;;;;9.15;3.10;;;;;;;24.65;41.38;100755.66;123624;1099;104213;-78
2022/06/18 09:47:52;;;;;;;7.17;3.00;;;;;;;24.72;41.02;100758.19;123638;1099;104256;-75
2022/06/18 09:50:29;;;;;;;3.93;2.70;;;;;;;24.82;41.04;100747.28;123702;1099;104380;-76
2022/06/18 09:53:04;;;;;;;3.40;2.60;;;;;;;24.92;40.22;100740.84;123592;1099;104245;-77
2022/06/18 09:55:42;;;;;;;4.37;2.50;;;;;;;25.03;40.89;100733.44;123715;1099;104343;-76
2022/06/18 09:58:18;;;;;;;4.03;2.60;;;;;;;24.97;40.33;100738.94;123750;1099;104245;-77
2022/06/18 10:00:52;;;;;;;3.00;2.60;;;;;;;24.98;40.70;100732.66;123678;1099;104386;-79
2022/06/18 10:09:13;;;;;;;2.73;2.47;;;;;;;25.34;39.62;100729.24;124117;1099;104359;-78
2022/06/18 10:11:44;;;;;;;;;;;;;;;25.43;37.28;100729.95;124025;1099;104351;-78
2022/06/18 10:14:19;;;;;;;5.13;2.40;;;;;;;25.48;37.30;100743.27;124051;1099;104211;-78
2022/06/18 10:17:02;;;;;;;8.67;2.93;;;;;;;25.54;38.24;100727.02;124462;1099;104655;-78
2022/06/18 10:19:48;;;;;;;4.47;2.60;;;;;;;25.70;38.35;100732.05;124017;1099;104248;-78
2022/06/18 10:22:27;;;;;;;4.10;2.70;;;;;;;25.68;39.06;100728.48;123954;1099;104220;-78
2022/06/18 10:25:12;;;;;;;5.00;2.67;;;;;;;25.62;38.73;100734.91;124204;1099;104242;-78
2022/06/18 10:27:51;;;;;;;5.10;2.53;;;;;;;25.51;38.71;100734.24;124339;1099;104174;-79
2022/06/18 10:30:31;;;;;;;4.57;2.70;;;;;;;25.42;37.75;100736.22;124197;1099;104249;-79
2022/06/18 10:33:13;;;;;;;3.50;2.70;;;;;;;25.40;38.00;100735.38;124040;1098;104239;-79
2022/06/18 10:35:55;;;;;;;3.20;2.80;;;;;;;25.43;38.36;100724.57;124032;1099;104236;-79
2022/06/18 10:38:51;;;;;;;5.60;2.90;;;;;;;25.53;37.78;100727.92;124087;1099;104217;-78
2022/06/18 10:41:28;;;;;;;6.27;2.50;;;;;;;25.72;38.16;100724.81;123978;1099;104353;-77
2022/06/18 10:44:14;;;;;;;4.63;2.60;;;;;;;25.88;37.67;100728.02;124160;1099;104197;-79
2022/06/18 10:46:46;;;;;;;3.00;2.70;;;;;;;25.90;37.07;100728.85;124182;1099;104338;-77
2022/06/18 10:49:27;;;;;;;4.67;2.67;;;;;;;25.76;37.39;100713.96;123902;1099;104249;-78
2022/06/18 10:51:59;;;;;;;3.87;2.43;;;;;;;25.63;36.68;100713.38;123610;1099;105562;-77
2022/06/18 10:54:36;;;;;;;4.23;3.00;;;;;;;25.55;37.09;100717.14;123887;1099;104220;-79
2022/06/18 10:57:21;;;;;;;3.60;2.67;;;;;;;25.83;37.33;100720.94;123613;1099;104271;-78
2022/06/18 10:59:53;;;;;;;4.97;2.57;;;;;;;26.07;37.11;100720.41;123592;1099;104405;-79
2022/06/18 11:02:34;;;;;;;3.97;2.50;;;;;;;26.08;36.37;100725.75;123752;1099;104354;-78
2022/06/18 11:05:24;;;;;;;7.97;2.70;;;;;;;25.92;36.43;100719.84;123961;1099;104489;-78
2022/06/18 11:08:00;;;;;;;3.73;2.30;;;;;;;25.71;36.58;100723.95;123999;1099;104237;-76
2022/06/18 11:10:38;;;;;;;5.37;2.70;;;;;;;25.56;36.39;100722.48;123777;1099;104341;-77
2022/06/18 11:13:22;;;;;;;5.83;2.73;;;;;;;25.47;36.51;100730.75;123871;1099;104245;-76
2022/06/18 11:16:06;;;;;;;6.67;2.97;;;;;;;25.37;37.04;100730.08;123850;1099;104226;-78
2022/06/18 11:18:43;;;;;;;;;;;;;;;25.15;37.19;100736.78;123808;1099;104306;-77
2022/06/18 11:21:22;;;;;;;5.63;2.90;;;;;;;24.98;37.46;100731.75;123774;1099;104264;-77
2022/06/18 11:24:00;;;;;;;8.70;3.00;;;;;;;24.72;38.10;100739.41;123724;1099;104335;-78
2022/06/18 11:26:32;;;;;;;3.73;3.00;;;;;;;24.58;38.27;100760.25;123696;1099;104895;-79
2022/06/18 11:29:13;;;;;;;3.75;3.00;;;;;;;24.60;38.29;100761.09;123663;1099;104312;-80
2022/06/18 11:31:50;;;;;;;8.73;3.43;;;;;;;24.63;38.78;100765.53;123723;1099;104360;-79
2022/06/18 11:34:27;;;;;;;4.00;2.93;;;;;;;24.56;38.97;100756.69;123836;1099;104363;-79
2022/06/18 11:37:00;;;;;;;6.43;3.30;;;;;;;24.50;39.29;100759.48;124147;1099;104619;-79
2022/06/18 11:39:36;;;;;;;3.90;3.37;;;;;;;24.47;39.28;100754.17;123748;1098;104261;-78
2022/06/18 11:42:18;;;;;;;5.97;3.20;;;;;;;24.54;39.42;100761.17;123637;1099;104275;-80
2022/06/18 11:44:58;;;;;;;6.20;3.50;;;;;;;24.60;39.49;100758.42;123604;1099;107840;-78
2022/06/18 11:47:37;;;;;;;6.83;3.20;;;;;;;24.73;39.58;100759.09;123722;1099;104281;-79
2022/06/18 11:50:17;;;;;;;5.17;3.00;;;;;;;24.80;39.11;100750.00;123528;1099;104317;-80
2022/06/18 11:52:57;;;;;;;3.20;2.67;;;;;;;24.88;39.74;100750.72;124176;1099;104322;-80
2022/06/18 11:55:35;;;;;;;3.10;2.80;;;;;;;24.98;39.23;100748.77;123876;1099;104291;-79
2022/06/18 11:58:19;;;;;;;5.25;3.25;;;;;;;25.00;39.71;100757.66;123878;1099;104415;-79
2022/06/18 12:00:52;;;;;;;;;;;;;;;25.09;38.63;100752.11;123776;1099;104380;-79
2022/06/18 12:03:33;;;;;;;4.63;2.70;;;;;;;25.06;39.15;100740.56;124163;1099;104257;-81
2022/06/18 12:06:12;;;;;;;3.10;2.80;;;;;;;25.01;39.24;100746.02;124174;1099;104356;-80
2022/06/18 12:08:45;;;;;;;3.83;2.80;;;;;;;25.09;38.85;100733.31;123733;1099;104391;-80
2022/06/18 12:11:31;;;;;;;3.77;2.40;;;;;;;25.22;38.76;100730.38;123660;1099;104223;-79